Airfield :
LOGIN :

Register | Disclaimer

   EN    FR    IT 

 










Legend :    VFR   Marginal VFR   IFR   Intensive IFR   Very Intensive IFR
Visi :
Ceiling :
>= 8 km
>= 3000ft
5 to 8 km
1000 to 3000 ft
1500m to 5 km
500 to 1000 ft
800 to 1500m
200 to 500 ft
< 800m
< 200 ft
Symbols :   Thunderstorms  Fog  Heavy snow  Heavy precipitations  Wind > 20 kt
SIGMETs :     Misc.  Thunderstorms  Icing  Turbulence  Mountain Waves  Volcanic Ashes







- Airport Elevation : 16 ft
- IATA code : EAS


LESO - San Sebastian Fuenterrabia

CURRENT METAR :
  • 250330Z 23006KT 190V280 CAVOK 12/09 Q1001

EXPIRED METARs :
  • 250300Z AUTO 23007KT 200V280 CAVOK 12/09 Q1001
  • 250230Z AUTO 19007KT 9999 -RA FEW026 SCT050 BKN067 12/11 Q1001
  • 250200Z AUTO 21005KT 170V250 9999 -RA BKN032 BKN041 BKN060 12/11 Q1002
  • 250130Z AUTO VRB04KT 8000 -RA FEW039 SCT045 BKN056 13/10 Q1001
  • 250100Z AUTO 29005KT 9999 -RA FEW050 BKN060 13/10 Q1001 RERA

TAF TAF LESO
Valid from the 25 at 00:00 until the 26 at 00:00 UTC


242300Z 2500/2524 22009KT 9999 SCT040 TX19/2514Z TN10/2505Z
TEMPO 2506/2521 23015G30KT
TEMPO 2503/2524 SCT030TCU
PROB40
TEMPO 2521/2524 26015G25KT SHRA TS SCT020TCU SCT030CB
No reported NOTAMs for that airfield.



MET'MAP, your aeronautical weather chart ! - Copyright ORBIFLY December 2007 - Disclaimer

ORBIFLY MET'MAP TEAM :

Programming & Development : Alexandra Zaïnal
Concept & Development : Baudouin d'Aumeries
Co-Development & Prog : Marc-Olivier Méhu
Technical & hardware support : Manuel Goepfert

Contact : metmap@orbifly.com




SOURCES & CREDITS :

   NOAA